sensor_id;sensor_type;location;lat;lon;timestamp;P1;durP1;ratioP1;P2;durP2;ratioP2
13609;SDS011;6876;50.788;4.940;2023-09-19T00:01:41;8.43;;;2.37;;
13609;SDS011;6876;50.788;4.940;2023-09-19T00:04:32;8.07;;;2.30;;
13609;SDS011;6876;50.788;4.940;2023-09-19T00:07:19;9.20;;;2.70;;
13609;SDS011;6876;50.788;4.940;2023-09-19T00:10:07;10.20;;;2.70;;
13609;SDS011;6876;50.788;4.940;2023-09-19T00:12:55;7.37;;;2.43;;
13609;SDS011;6876;50.788;4.940;2023-09-19T00:15:45;7.73;;;2.60;;
13609;SDS011;6876;50.788;4.940;2023-09-19T00:18:35;10.37;;;2.33;;
13609;SDS011;6876;50.788;4.940;2023-09-19T00:21:23;6.00;;;2.25;;
13609;SDS011;6876;50.788;4.940;2023-09-19T00:24:11;8.50;;;2.57;;
13609;SDS011;6876;50.788;4.940;2023-09-19T00:26:59;13.13;;;2.63;;
13609;SDS011;6876;50.788;4.940;2023-09-19T00:29:46;10.60;;;2.20;;
13609;SDS011;6876;50.788;4.940;2023-09-19T00:32:33;6.17;;;2.50;;
13609;SDS011;6876;50.788;4.940;2023-09-19T00:35:23;9.23;;;2.60;;
13609;SDS011;6876;50.788;4.940;2023-09-19T00:38:12;7.23;;;2.43;;
13609;SDS011;6876;50.788;4.940;2023-09-19T00:41:01;7.20;;;2.83;;
13609;SDS011;6876;50.788;4.940;2023-09-19T00:43:48;7.10;;;2.33;;
13609;SDS011;6876;50.788;4.940;2023-09-19T00:46:36;11.20;;;2.90;;
13609;SDS011;6876;50.788;4.940;2023-09-19T00:49:23;12.57;;;3.23;;
13609;SDS011;6876;50.788;4.940;2023-09-19T00:52:11;8.77;;;2.50;;
13609;SDS011;6876;50.788;4.940;2023-09-19T00:55:00;8.47;;;2.90;;
13609;SDS011;6876;50.788;4.940;2023-09-19T00:57:48;8.55;;;2.85;;
13609;SDS011;6876;50.788;4.940;2023-09-19T01:00:35;8.90;;;2.90;;
13609;SDS011;6876;50.788;4.940;2023-09-19T01:03:23;8.63;;;3.33;;
13609;SDS011;6876;50.788;4.940;2023-09-19T01:06:10;7.87;;;2.97;;
13609;SDS011;6876;50.788;4.940;2023-09-19T01:08:58;8.90;;;3.30;;
13609;SDS011;6876;50.788;4.940;2023-09-19T01:11:47;7.40;;;2.80;;
13609;SDS011;6876;50.788;4.940;2023-09-19T01:14:38;10.83;;;3.00;;
13609;SDS011;6876;50.788;4.940;2023-09-19T01:17:34;7.97;;;2.80;;
13609;SDS011;6876;50.788;4.940;2023-09-19T01:20:34;11.27;;;2.90;;
13609;SDS011;6876;50.788;4.940;2023-09-19T01:23:28;10.73;;;3.27;;
13609;SDS011;6876;50.788;4.940;2023-09-19T01:26:37;9.17;;;3.00;;
13609;SDS011;6876;50.788;4.940;2023-09-19T01:29:44;10.27;;;3.20;;
13609;SDS011;6876;50.788;4.940;2023-09-19T01:32:34;6.53;;;3.10;;
13609;SDS011;6876;50.788;4.940;2023-09-19T01:35:23;9.47;;;3.03;;
13609;SDS011;6876;50.788;4.940;2023-09-19T01:38:11;11.20;;;2.90;;
13609;SDS011;6876;50.788;4.940;2023-09-19T01:41:00;10.20;;;3.40;;
13609;SDS011;6876;50.788;4.940;2023-09-19T01:43:53;10.07;;;2.90;;
13609;SDS011;6876;50.788;4.940;2023-09-19T01:46:40;7.47;;;3.07;;
13609;SDS011;6876;50.788;4.940;2023-09-19T01:49:32;14.40;;;3.47;;
13609;SDS011;6876;50.788;4.940;2023-09-19T01:52:25;8.93;;;3.23;;
13609;SDS011;6876;50.788;4.940;2023-09-19T01:55:16;7.43;;;3.07;;
13609;SDS011;6876;50.788;4.940;2023-09-19T01:58:05;7.93;;;3.20;;
13609;SDS011;6876;50.788;4.940;2023-09-19T02:00:55;8.37;;;3.07;;
13609;SDS011;6876;50.788;4.940;2023-09-19T02:03:45;14.53;;;3.47;;
13609;SDS011;6876;50.788;4.940;2023-09-19T02:06:35;11.20;;;3.30;;
13609;SDS011;6876;50.788;4.940;2023-09-19T02:09:25;9.43;;;3.20;;
13609;SDS011;6876;50.788;4.940;2023-09-19T02:12:13;7.57;;;2.93;;
13609;SDS011;6876;50.788;4.940;2023-09-19T02:15:00;9.60;;;2.93;;
13609;SDS011;6876;50.788;4.940;2023-09-19T02:17:48;7.90;;;3.13;;
13609;SDS011;6876;50.788;4.940;2023-09-19T02:20:35;6.87;;;2.73;;
13609;SDS011;6876;50.788;4.940;2023-09-19T02:23:24;9.83;;;3.07;;
13609;SDS011;6876;50.788;4.940;2023-09-19T02:26:11;12.10;;;3.07;;
13609;SDS011;6876;50.788;4.940;2023-09-19T02:28:59;13.80;;;3.50;;
13609;SDS011;6876;50.788;4.940;2023-09-19T02:31:46;10.50;;;3.23;;
13609;SDS011;6876;50.788;4.940;2023-09-19T02:34:34;7.73;;;2.70;;
13609;SDS011;6876;50.788;4.940;2023-09-19T02:37:22;12.40;;;3.53;;
13609;SDS011;6876;50.788;4.940;2023-09-19T02:40:11;8.03;;;2.80;;
13609;SDS011;6876;50.788;4.940;2023-09-19T02:43:05;12.43;;;3.00;;
13609;SDS011;6876;50.788;4.940;2023-09-19T02:45:53;11.97;;;3.20;;
13609;SDS011;6876;50.788;4.940;2023-09-19T02:48:42;15.30;;;3.27;;
13609;SDS011;6876;50.788;4.940;2023-09-19T02:51:29;9.30;;;2.73;;
13609;SDS011;6876;50.788;4.940;2023-09-19T02:54:17;9.70;;;3.00;;
13609;SDS011;6876;50.788;4.940;2023-09-19T02:57:06;9.43;;;2.93;;
13609;SDS011;6876;50.788;4.940;2023-09-19T02:59:55;10.90;;;2.90;;
13609;SDS011;6876;50.788;4.940;2023-09-19T03:02:42;12.03;;;3.23;;
13609;SDS011;6876;50.788;4.940;2023-09-19T03:05:30;13.43;;;3.33;;
13609;SDS011;6876;50.788;4.940;2023-09-19T03:08:17;9.03;;;2.77;;
13609;SDS011;6876;50.788;4.940;2023-09-19T03:11:05;8.73;;;2.70;;
13609;SDS011;6876;50.788;4.940;2023-09-19T03:13:54;11.30;;;3.10;;
13609;SDS011;6876;50.788;4.940;2023-09-19T03:16:42;9.33;;;3.03;;
13609;SDS011;6876;50.788;4.940;2023-09-19T03:19:30;11.03;;;3.23;;
13609;SDS011;6876;50.788;4.940;2023-09-19T03:22:18;11.93;;;2.90;;
13609;SDS011;6876;50.788;4.940;2023-09-19T03:25:06;10.57;;;2.70;;
13609;SDS011;6876;50.788;4.940;2023-09-19T03:27:55;8.20;;;2.97;;
13609;SDS011;6876;50.788;4.940;2023-09-19T03:30:45;10.13;;;3.23;;
13609;SDS011;6876;50.788;4.940;2023-09-19T03:33:32;9.10;;;2.67;;
13609;SDS011;6876;50.788;4.940;2023-09-19T03:36:20;8.50;;;2.67;;
13609;SDS011;6876;50.788;4.940;2023-09-19T03:39:07;6.70;;;2.43;;
13609;SDS011;6876;50.788;4.940;2023-09-19T03:41:56;9.60;;;3.00;;
13609;SDS011;6876;50.788;4.940;2023-09-19T03:44:43;12.77;;;3.00;;
13609;SDS011;6876;50.788;4.940;2023-09-19T03:47:32;9.03;;;2.83;;
13609;SDS011;6876;50.788;4.940;2023-09-19T03:50:19;13.70;;;2.77;;
13609;SDS011;6876;50.788;4.940;2023-09-19T03:53:06;10.07;;;3.10;;
13609;SDS011;6876;50.788;4.940;2023-09-19T03:55:53;10.37;;;2.80;;
13609;SDS011;6876;50.788;4.940;2023-09-19T03:58:41;13.13;;;3.37;;
13609;SDS011;6876;50.788;4.940;2023-09-19T04:01:28;14.63;;;3.47;;
13609;SDS011;6876;50.788;4.940;2023-09-19T04:04:18;8.60;;;3.00;;
13609;SDS011;6876;50.788;4.940;2023-09-19T04:07:06;8.17;;;3.10;;
13609;SDS011;6876;50.788;4.940;2023-09-19T04:09:53;13.53;;;3.17;;
13609;SDS011;6876;50.788;4.940;2023-09-19T04:12:41;11.00;;;3.10;;
13609;SDS011;6876;50.788;4.940;2023-09-19T04:15:37;9.43;;;2.93;;
13609;SDS011;6876;50.788;4.940;2023-09-19T04:18:25;12.30;;;3.20;;
13609;SDS011;6876;50.788;4.940;2023-09-19T04:21:14;11.47;;;3.20;;
13609;SDS011;6876;50.788;4.940;2023-09-19T04:24:02;10.67;;;3.00;;
13609;SDS011;6876;50.788;4.940;2023-09-19T04:26:49;12.97;;;3.10;;
13609;SDS011;6876;50.788;4.940;2023-09-19T04:29:38;9.47;;;3.00;;
13609;SDS011;6876;50.788;4.940;2023-09-19T04:32:28;13.40;;;3.53;;
13609;SDS011;6876;50.788;4.940;2023-09-19T04:35:17;10.67;;;3.23;;
13609;SDS011;6876;50.788;4.940;2023-09-19T04:38:06;10.23;;;3.07;;
13609;SDS011;6876;50.788;4.940;2023-09-19T04:40:56;8.27;;;3.17;;
13609;SDS011;6876;50.788;4.940;2023-09-19T04:43:44;11.20;;;3.23;;
13609;SDS011;6876;50.788;4.940;2023-09-19T04:46:31;12.00;;;3.23;;
13609;SDS011;6876;50.788;4.940;2023-09-19T04:49:19;9.97;;;3.17;;
13609;SDS011;6876;50.788;4.940;2023-09-19T04:52:06;9.10;;;3.33;;
13609;SDS011;6876;50.788;4.940;2023-09-19T04:54:55;7.17;;;2.87;;
13609;SDS011;6876;50.788;4.940;2023-09-19T04:57:42;8.33;;;2.77;;
13609;SDS011;6876;50.788;4.940;2023-09-19T05:00:31;9.57;;;3.27;;
13609;SDS011;6876;50.788;4.940;2023-09-19T05:03:20;12.70;;;3.00;;
13609;SDS011;6876;50.788;4.940;2023-09-19T05:06:08;9.90;;;3.00;;
13609;SDS011;6876;50.788;4.940;2023-09-19T05:08:55;8.47;;;2.70;;
13609;SDS011;6876;50.788;4.940;2023-09-19T05:11:44;18.17;;;3.33;;
13609;SDS011;6876;50.788;4.940;2023-09-19T05:14:31;9.33;;;2.97;;
13609;SDS011;6876;50.788;4.940;2023-09-19T05:17:19;6.43;;;2.70;;
13609;SDS011;6876;50.788;4.940;2023-09-19T05:20:07;9.87;;;2.57;;
13609;SDS011;6876;50.788;4.940;2023-09-19T05:22:59;7.47;;;2.43;;
13609;SDS011;6876;50.788;4.940;2023-09-19T05:25:47;9.53;;;2.90;;
13609;SDS011;6876;50.788;4.940;2023-09-19T05:28:36;10.23;;;3.17;;
13609;SDS011;6876;50.788;4.940;2023-09-19T05:31:23;10.63;;;3.30;;
13609;SDS011;6876;50.788;4.940;2023-09-19T05:34:11;12.80;;;3.17;;
13609;SDS011;6876;50.788;4.940;2023-09-19T05:36:58;9.47;;;3.07;;
13609;SDS011;6876;50.788;4.940;2023-09-19T05:39:45;12.17;;;3.10;;
13609;SDS011;6876;50.788;4.940;2023-09-19T05:42:33;7.70;;;3.00;;
13609;SDS011;6876;50.788;4.940;2023-09-19T05:45:21;11.57;;;2.20;;
13609;SDS011;6876;50.788;4.940;2023-09-19T05:48:09;9.77;;;2.67;;
13609;SDS011;6876;50.788;4.940;2023-09-19T05:51:00;8.57;;;3.03;;
13609;SDS011;6876;50.788;4.940;2023-09-19T05:53:47;7.20;;;2.50;;
13609;SDS011;6876;50.788;4.940;2023-09-19T05:56:35;7.57;;;2.50;;
13609;SDS011;6876;50.788;4.940;2023-09-19T05:59:22;8.10;;;2.80;;
13609;SDS011;6876;50.788;4.940;2023-09-19T06:02:11;9.23;;;2.77;;
13609;SDS011;6876;50.788;4.940;2023-09-19T06:04:59;10.83;;;2.80;;
13609;SDS011;6876;50.788;4.940;2023-09-19T06:07:46;11.73;;;2.50;;
13609;SDS011;6876;50.788;4.940;2023-09-19T06:10:35;7.77;;;2.30;;
13609;SDS011;6876;50.788;4.940;2023-09-19T06:13:22;12.40;;;2.67;;
13609;SDS011;6876;50.788;4.940;2023-09-19T06:16:12;10.83;;;2.87;;
13609;SDS011;6876;50.788;4.940;2023-09-19T06:19:01;7.23;;;2.10;;
13609;SDS011;6876;50.788;4.940;2023-09-19T06:21:48;11.97;;;2.70;;
13609;SDS011;6876;50.788;4.940;2023-09-19T06:24:36;8.13;;;2.23;;
13609;SDS011;6876;50.788;4.940;2023-09-19T06:27:23;10.07;;;3.00;;
13609;SDS011;6876;50.788;4.940;2023-09-19T06:30:10;9.37;;;2.80;;
13609;SDS011;6876;50.788;4.940;2023-09-19T06:32:58;9.40;;;2.20;;
13609;SDS011;6876;50.788;4.940;2023-09-19T06:35:49;10.87;;;2.53;;
13609;SDS011;6876;50.788;4.940;2023-09-19T06:38:39;9.57;;;2.57;;
13609;SDS011;6876;50.788;4.940;2023-09-19T06:41:26;7.77;;;2.47;;
13609;SDS011;6876;50.788;4.940;2023-09-19T06:44:15;9.63;;;2.10;;
13609;SDS011;6876;50.788;4.940;2023-09-19T06:47:02;9.03;;;2.87;;
13609;SDS011;6876;50.788;4.940;2023-09-19T06:49:50;10.63;;;2.43;;
13609;SDS011;6876;50.788;4.940;2023-09-19T06:52:39;5.13;;;2.13;;
13609;SDS011;6876;50.788;4.940;2023-09-19T06:55:27;9.60;;;2.90;;
13609;SDS011;6876;50.788;4.940;2023-09-19T06:58:16;8.77;;;2.70;;
13609;SDS011;6876;50.788;4.940;2023-09-19T07:01:04;11.00;;;2.73;;
13609;SDS011;6876;50.788;4.940;2023-09-19T07:03:52;8.93;;;2.30;;
13609;SDS011;6876;50.788;4.940;2023-09-19T07:06:40;9.47;;;2.40;;
13609;SDS011;6876;50.788;4.940;2023-09-19T07:09:28;10.37;;;2.50;;
13609;SDS011;6876;50.788;4.940;2023-09-19T07:12:15;9.40;;;2.80;;
13609;SDS011;6876;50.788;4.940;2023-09-19T07:15:03;11.00;;;2.30;;
13609;SDS011;6876;50.788;4.940;2023-09-19T07:17:52;8.47;;;2.50;;
13609;SDS011;6876;50.788;4.940;2023-09-19T07:20:40;8.17;;;2.60;;
13609;SDS011;6876;50.788;4.940;2023-09-19T07:23:31;6.90;;;2.60;;
13609;SDS011;6876;50.788;4.940;2023-09-19T07:26:21;8.50;;;2.33;;
13609;SDS011;6876;50.788;4.940;2023-09-19T07:29:09;7.23;;;2.40;;
13609;SDS011;6876;50.788;4.940;2023-09-19T07:31:56;11.15;;;2.22;;
13609;SDS011;6876;50.788;4.940;2023-09-19T07:34:43;9.37;;;2.40;;
13609;SDS011;6876;50.788;4.940;2023-09-19T07:37:31;7.28;;;2.30;;
13609;SDS011;6876;50.788;4.940;2023-09-19T07:40:19;8.38;;;2.90;;
13609;SDS011;6876;50.788;4.940;2023-09-19T07:43:08;6.65;;;2.08;;
13609;SDS011;6876;50.788;4.940;2023-09-19T07:45:55;6.82;;;2.45;;
13609;SDS011;6876;50.788;4.940;2023-09-19T07:48:42;9.98;;;2.35;;
13609;SDS011;6876;50.788;4.940;2023-09-19T07:51:34;9.05;;;2.88;;
13609;SDS011;6876;50.788;4.940;2023-09-19T07:54:21;6.43;;;2.40;;
13609;SDS011;6876;50.788;4.940;2023-09-19T07:57:08;7.43;;;2.47;;
13609;SDS011;6876;50.788;4.940;2023-09-19T07:59:57;7.85;;;2.70;;
13609;SDS011;6876;50.788;4.940;2023-09-19T08:02:45;11.30;;;2.42;;
13609;SDS011;6876;50.788;4.940;2023-09-19T08:05:33;9.52;;;2.53;;
13609;SDS011;6876;50.788;4.940;2023-09-19T08:08:22;7.95;;;2.22;;
13609;SDS011;6876;50.788;4.940;2023-09-19T08:11:09;13.90;;;2.80;;
13609;SDS011;6876;50.788;4.940;2023-09-19T08:13:58;7.18;;;2.15;;
13609;SDS011;6876;50.788;4.940;2023-09-19T08:16:47;11.10;;;2.95;;
13609;SDS011;6876;50.788;4.940;2023-09-19T08:19:35;11.88;;;2.72;;
13609;SDS011;6876;50.788;4.940;2023-09-19T08:22:26;8.40;;;2.65;;
13609;SDS011;6876;50.788;4.940;2023-09-19T08:25:14;8.55;;;2.45;;
13609;SDS011;6876;50.788;4.940;2023-09-19T08:28:03;9.75;;;2.80;;
13609;SDS011;6876;50.788;4.940;2023-09-19T08:30:53;12.88;;;2.67;;
13609;SDS011;6876;50.788;4.940;2023-09-19T08:33:42;10.75;;;2.58;;
13609;SDS011;6876;50.788;4.940;2023-09-19T08:36:35;8.85;;;2.38;;
13609;SDS011;6876;50.788;4.940;2023-09-19T08:39:24;8.85;;;2.47;;
13609;SDS011;6876;50.788;4.940;2023-09-19T08:42:11;9.32;;;2.47;;
13609;SDS011;6876;50.788;4.940;2023-09-19T08:44:59;5.18;;;1.95;;
13609;SDS011;6876;50.788;4.940;2023-09-19T08:47:50;8.40;;;2.65;;
13609;SDS011;6876;50.788;4.940;2023-09-19T08:50:51;9.32;;;2.60;;
13609;SDS011;6876;50.788;4.940;2023-09-19T08:53:47;10.63;;;2.42;;
13609;SDS011;6876;50.788;4.940;2023-09-19T08:56:38;7.75;;;2.70;;
13609;SDS011;6876;50.788;4.940;2023-09-19T08:59:26;8.90;;;2.92;;
13609;SDS011;6876;50.788;4.940;2023-09-19T09:02:15;12.88;;;2.72;;
13609;SDS011;6876;50.788;4.940;2023-09-19T09:05:04;10.73;;;2.55;;
13609;SDS011;6876;50.788;4.940;2023-09-19T09:07:54;11.27;;;2.72;;
13609;SDS011;6876;50.788;4.940;2023-09-19T09:10:43;15.65;;;2.78;;
13609;SDS011;6876;50.788;4.940;2023-09-19T09:13:31;10.23;;;2.50;;
13609;SDS011;6876;50.788;4.940;2023-09-19T09:16:19;9.80;;;2.95;;
13609;SDS011;6876;50.788;4.940;2023-09-19T09:19:07;8.23;;;2.63;;
13609;SDS011;6876;50.788;4.940;2023-09-19T09:21:54;9.35;;;2.70;;
13609;SDS011;6876;50.788;4.940;2023-09-19T09:24:53;10.68;;;2.72;;
13609;SDS011;6876;50.788;4.940;2023-09-19T09:27:43;9.27;;;2.35;;
13609;SDS011;6876;50.788;4.940;2023-09-19T09:30:35;8.25;;;2.50;;
13609;SDS011;6876;50.788;4.940;2023-09-19T09:33:23;10.23;;;2.83;;
13609;SDS011;6876;50.788;4.940;2023-09-19T09:36:11;9.65;;;2.70;;
13609;SDS011;6876;50.788;4.940;2023-09-19T09:39:00;7.10;;;1.92;;
13609;SDS011;6876;50.788;4.940;2023-09-19T09:42:02;10.50;;;2.28;;
13609;SDS011;6876;50.788;4.940;2023-09-19T09:44:53;7.18;;;2.28;;
13609;SDS011;6876;50.788;4.940;2023-09-19T09:48:00;5.70;;;1.98;;
13609;SDS011;6876;50.788;4.940;2023-09-19T09:50:49;6.35;;;2.20;;
13609;SDS011;6876;50.788;4.940;2023-09-19T09:53:41;8.07;;;2.22;;
13609;SDS011;6876;50.788;4.940;2023-09-19T09:56:31;6.20;;;2.00;;
13609;SDS011;6876;50.788;4.940;2023-09-19T09:59:21;6.82;;;2.33;;
13609;SDS011;6876;50.788;4.940;2023-09-19T10:02:09;8.27;;;2.55;;
13609;SDS011;6876;50.788;4.940;2023-09-19T10:04:59;7.53;;;1.98;;
13609;SDS011;6876;50.788;4.940;2023-09-19T10:08:09;6.90;;;2.10;;
13609;SDS011;6876;50.788;4.940;2023-09-19T10:10:58;5.90;;;2.20;;
13609;SDS011;6876;50.788;4.940;2023-09-19T10:13:51;5.18;;;2.33;;
13609;SDS011;6876;50.788;4.940;2023-09-19T10:16:44;8.30;;;2.60;;
13609;SDS011;6876;50.788;4.940;2023-09-19T10:19:35;10.73;;;2.83;;
13609;SDS011;6876;50.788;4.940;2023-09-19T10:22:24;8.23;;;2.25;;
13609;SDS011;6876;50.788;4.940;2023-09-19T10:25:16;5.85;;;2.08;;
13609;SDS011;6876;50.788;4.940;2023-09-19T10:28:06;6.43;;;2.20;;
13609;SDS011;6876;50.788;4.940;2023-09-19T10:30:56;7.75;;;2.40;;
13609;SDS011;6876;50.788;4.940;2023-09-19T10:33:47;7.50;;;1.95;;
13609;SDS011;6876;50.788;4.940;2023-09-19T10:36:36;6.75;;;1.90;;
13609;SDS011;6876;50.788;4.940;2023-09-19T10:39:27;7.13;;;2.05;;
13609;SDS011;6876;50.788;4.940;2023-09-19T10:42:19;6.82;;;2.25;;
13609;SDS011;6876;50.788;4.940;2023-09-19T10:45:07;7.10;;;2.15;;
13609;SDS011;6876;50.788;4.940;2023-09-19T10:47:59;5.78;;;1.73;;
13609;SDS011;6876;50.788;4.940;2023-09-19T10:50:50;8.65;;;1.98;;
13609;SDS011;6876;50.788;4.940;2023-09-19T10:53:45;6.20;;;1.85;;
13609;SDS011;6876;50.788;4.940;2023-09-19T10:56:37;5.63;;;1.65;;
13609;SDS011;6876;50.788;4.940;2023-09-19T10:59:27;4.65;;;1.50;;
13609;SDS011;6876;50.788;4.940;2023-09-19T11:02:20;5.15;;;1.88;;
13609;SDS011;6876;50.788;4.940;2023-09-19T11:05:12;4.30;;;1.73;;
13609;SDS011;6876;50.788;4.940;2023-09-19T11:08:01;4.38;;;1.42;;
13609;SDS011;6876;50.788;4.940;2023-09-19T11:10:50;4.93;;;1.60;;
13609;SDS011;6876;50.788;4.940;2023-09-19T11:13:38;5.95;;;1.48;;
13609;SDS011;6876;50.788;4.940;2023-09-19T11:16:27;5.90;;;1.75;;
13609;SDS011;6876;50.788;4.940;2023-09-19T11:19:14;6.13;;;1.60;;
13609;SDS011;6876;50.788;4.940;2023-09-19T11:22:02;10.18;;;1.77;;
13609;SDS011;6876;50.788;4.940;2023-09-19T11:24:50;4.57;;;1.60;;
13609;SDS011;6876;50.788;4.940;2023-09-19T11:27:37;5.05;;;1.13;;
13609;SDS011;6876;50.788;4.940;2023-09-19T11:34:42;4.35;;;1.30;;
13609;SDS011;6876;50.788;4.940;2023-09-19T11:44:34;5.30;;;1.45;;
13609;SDS011;6876;50.788;4.940;2023-09-19T11:47:23;5.90;;;1.40;;
13609;SDS011;6876;50.788;4.940;2023-09-19T11:50:11;5.22;;;1.20;;
13609;SDS011;6876;50.788;4.940;2023-09-19T11:53:05;2.55;;;1.23;;
13609;SDS011;6876;50.788;4.940;2023-09-19T11:55:56;5.00;;;1.38;;
13609;SDS011;6876;50.788;4.940;2023-09-19T11:58:47;3.20;;;1.00;;
13609;SDS011;6876;50.788;4.940;2023-09-19T12:01:42;3.58;;;1.08;;
13609;SDS011;6876;50.788;4.940;2023-09-19T12:04:39;9.90;;;1.40;;
13609;SDS011;6876;50.788;4.940;2023-09-19T12:07:28;3.20;;;1.00;;
13609;SDS011;6876;50.788;4.940;2023-09-19T12:10:16;2.13;;;0.95;;
13609;SDS011;6876;50.788;4.940;2023-09-19T12:13:06;3.40;;;1.25;;
13609;SDS011;6876;50.788;4.940;2023-09-19T12:15:57;3.50;;;1.13;;
13609;SDS011;6876;50.788;4.940;2023-09-19T12:18:46;6.95;;;1.13;;
13609;SDS011;6876;50.788;4.940;2023-09-19T12:21:35;5.28;;;1.40;;
13609;SDS011;6876;50.788;4.940;2023-09-19T12:24:23;2.30;;;0.85;;
13609;SDS011;6876;50.788;4.940;2023-09-19T12:27:12;2.63;;;0.90;;
13609;SDS011;6876;50.788;4.940;2023-09-19T12:29:59;2.35;;;0.80;;
13609;SDS011;6876;50.788;4.940;2023-09-19T12:32:52;7.45;;;1.05;;
13609;SDS011;6876;50.788;4.940;2023-09-19T12:35:41;3.28;;;0.90;;
13609;SDS011;6876;50.788;4.940;2023-09-19T12:38:30;3.53;;;0.90;;
13609;SDS011;6876;50.788;4.940;2023-09-19T12:41:20;2.03;;;0.68;;
13609;SDS011;6876;50.788;4.940;2023-09-19T12:44:10;6.15;;;1.15;;
13609;SDS011;6876;50.788;4.940;2023-09-19T12:46:58;3.30;;;0.90;;
13609;SDS011;6876;50.788;4.940;2023-09-19T12:50:07;2.42;;;1.05;;
13609;SDS011;6876;50.788;4.940;2023-09-19T12:53:00;3.10;;;0.90;;
13609;SDS011;6876;50.788;4.940;2023-09-19T12:55:50;3.95;;;1.10;;
13609;SDS011;6876;50.788;4.940;2023-09-19T12:58:48;1.98;;;0.80;;
13609;SDS011;6876;50.788;4.940;2023-09-19T13:01:36;7.38;;;1.00;;
13609;SDS011;6876;50.788;4.940;2023-09-19T13:04:28;3.40;;;1.00;;
13609;SDS011;6876;50.788;4.940;2023-09-19T13:10:31;2.63;;;0.90;;
13609;SDS011;6876;50.788;4.940;2023-09-19T13:13:23;3.95;;;0.90;;
13609;SDS011;6876;50.788;4.940;2023-09-19T13:16:14;5.40;;;1.25;;
13609;SDS011;6876;50.788;4.940;2023-09-19T13:19:05;2.53;;;1.00;;
13609;SDS011;6876;50.788;4.940;2023-09-19T13:21:54;4.30;;;1.30;;
13609;SDS011;6876;50.788;4.940;2023-09-19T13:24:44;2.42;;;0.93;;
13609;SDS011;6876;50.788;4.940;2023-09-19T13:27:36;3.28;;;1.17;;
13609;SDS011;6876;50.788;4.940;2023-09-19T13:30:24;4.97;;;1.20;;
13609;SDS011;6876;50.788;4.940;2023-09-19T13:33:14;4.07;;;1.20;;
13609;SDS011;6876;50.788;4.940;2023-09-19T13:36:06;4.00;;;1.08;;
13609;SDS011;6876;50.788;4.940;2023-09-19T13:38:54;2.88;;;1.13;;
13609;SDS011;6876;50.788;4.940;2023-09-19T13:41:43;2.63;;;0.82;;
13609;SDS011;6876;50.788;4.940;2023-09-19T13:44:32;3.05;;;0.85;;
13609;SDS011;6876;50.788;4.940;2023-09-19T13:47:19;2.45;;;0.90;;
13609;SDS011;6876;50.788;4.940;2023-09-19T13:50:10;3.10;;;1.02;;
13609;SDS011;6876;50.788;4.940;2023-09-19T13:52:57;5.07;;;1.10;;
13609;SDS011;6876;50.788;4.940;2023-09-19T13:55:46;2.70;;;0.88;;
13609;SDS011;6876;50.788;4.940;2023-09-19T13:58:35;4.53;;;1.17;;
13609;SDS011;6876;50.788;4.940;2023-09-19T14:01:22;3.20;;;1.10;;
13609;SDS011;6876;50.788;4.940;2023-09-19T14:04:12;4.45;;;1.20;;
13609;SDS011;6876;50.788;4.940;2023-09-19T14:07:00;3.92;;;1.08;;
13609;SDS011;6876;50.788;4.940;2023-09-19T14:09:49;3.40;;;1.17;;
13609;SDS011;6876;50.788;4.940;2023-09-19T14:12:36;5.30;;;1.30;;
13609;SDS011;6876;50.788;4.940;2023-09-19T14:15:25;5.32;;;1.20;;
13609;SDS011;6876;50.788;4.940;2023-09-19T14:18:15;7.70;;;1.33;;
13609;SDS011;6876;50.788;4.940;2023-09-19T14:21:04;3.80;;;1.20;;
13609;SDS011;6876;50.788;4.940;2023-09-19T14:23:51;3.22;;;1.00;;
13609;SDS011;6876;50.788;4.940;2023-09-19T14:26:40;5.63;;;1.23;;
13609;SDS011;6876;50.788;4.940;2023-09-19T14:29:27;3.95;;;0.95;;
13609;SDS011;6876;50.788;4.940;2023-09-19T14:32:17;3.30;;;1.00;;
13609;SDS011;6876;50.788;4.940;2023-09-19T14:35:05;2.97;;;1.23;;
13609;SDS011;6876;50.788;4.940;2023-09-19T14:37:55;3.72;;;1.15;;
13609;SDS011;6876;50.788;4.940;2023-09-19T14:40:42;3.55;;;1.08;;
13609;SDS011;6876;50.788;4.940;2023-09-19T14:43:29;3.95;;;1.30;;
13609;SDS011;6876;50.788;4.940;2023-09-19T14:46:18;4.45;;;1.38;;
13609;SDS011;6876;50.788;4.940;2023-09-19T14:49:06;3.20;;;1.30;;
13609;SDS011;6876;50.788;4.940;2023-09-19T14:51:55;5.07;;;1.58;;
13609;SDS011;6876;50.788;4.940;2023-09-19T14:54:43;4.28;;;1.25;;
13609;SDS011;6876;50.788;4.940;2023-09-19T14:57:30;2.90;;;1.02;;
13609;SDS011;6876;50.788;4.940;2023-09-19T15:00:18;4.07;;;1.20;;
13609;SDS011;6876;50.788;4.940;2023-09-19T15:03:06;4.82;;;1.45;;
13609;SDS011;6876;50.788;4.940;2023-09-19T15:05:59;3.33;;;1.13;;
13609;SDS011;6876;50.788;4.940;2023-09-19T15:08:47;5.43;;;1.48;;
13609;SDS011;6876;50.788;4.940;2023-09-19T15:11:35;4.90;;;1.13;;
13609;SDS011;6876;50.788;4.940;2023-09-19T15:14:23;3.85;;;1.50;;
13609;SDS011;6876;50.788;4.940;2023-09-19T15:17:11;3.05;;;1.08;;
13609;SDS011;6876;50.788;4.940;2023-09-19T15:19:58;5.40;;;1.25;;
13609;SDS011;6876;50.788;4.940;2023-09-19T15:22:49;5.47;;;1.30;;
13609;SDS011;6876;50.788;4.940;2023-09-19T15:25:36;4.68;;;1.45;;
13609;SDS011;6876;50.788;4.940;2023-09-19T15:28:25;5.00;;;1.45;;
13609;SDS011;6876;50.788;4.940;2023-09-19T15:31:14;6.28;;;1.40;;
13609;SDS011;6876;50.788;4.940;2023-09-19T15:34:01;3.90;;;1.52;;
13609;SDS011;6876;50.788;4.940;2023-09-19T15:36:49;2.83;;;1.10;;
13609;SDS011;6876;50.788;4.940;2023-09-19T15:39:38;3.92;;;1.52;;
13609;SDS011;6876;50.788;4.940;2023-09-19T15:42:26;6.93;;;1.40;;
13609;SDS011;6876;50.788;4.940;2023-09-19T15:45:13;3.17;;;1.38;;
13609;SDS011;6876;50.788;4.940;2023-09-19T15:48:01;3.33;;;1.30;;
13609;SDS011;6876;50.788;4.940;2023-09-19T15:50:50;2.92;;;1.10;;
13609;SDS011;6876;50.788;4.940;2023-09-19T15:53:41;7.97;;;1.52;;
13609;SDS011;6876;50.788;4.940;2023-09-19T15:56:32;2.80;;;0.88;;
13609;SDS011;6876;50.788;4.940;2023-09-19T15:59:21;3.10;;;1.40;;
13609;SDS011;6876;50.788;4.940;2023-09-19T16:02:08;3.97;;;1.40;;
13609;SDS011;6876;50.788;4.940;2023-09-19T16:04:55;3.47;;;1.33;;
13609;SDS011;6876;50.788;4.940;2023-09-19T16:07:43;4.65;;;1.48;;
13609;SDS011;6876;50.788;4.940;2023-09-19T16:10:33;2.75;;;1.05;;
13609;SDS011;6876;50.788;4.940;2023-09-19T16:13:23;4.82;;;1.10;;
13609;SDS011;6876;50.788;4.940;2023-09-19T16:16:11;3.42;;;1.20;;
13609;SDS011;6876;50.788;4.940;2023-09-19T16:19:01;4.30;;;1.60;;
13609;SDS011;6876;50.788;4.940;2023-09-19T16:21:50;1.92;;;1.25;;
13609;SDS011;6876;50.788;4.940;2023-09-19T16:24:38;3.25;;;1.40;;
13609;SDS011;6876;50.788;4.940;2023-09-19T16:27:25;3.35;;;1.20;;
13609;SDS011;6876;50.788;4.940;2023-09-19T16:30:14;4.97;;;1.40;;
13609;SDS011;6876;50.788;4.940;2023-09-19T16:33:04;2.85;;;1.25;;
13609;SDS011;6876;50.788;4.940;2023-09-19T16:35:51;4.47;;;1.58;;
13609;SDS011;6876;50.788;4.940;2023-09-19T16:38:39;4.22;;;1.52;;
13609;SDS011;6876;50.788;4.940;2023-09-19T16:41:28;4.82;;;1.30;;
13609;SDS011;6876;50.788;4.940;2023-09-19T16:44:15;3.78;;;1.30;;
13609;SDS011;6876;50.788;4.940;2023-09-19T16:47:04;4.32;;;1.17;;
13609;SDS011;6876;50.788;4.940;2023-09-19T16:49:51;3.97;;;1.35;;
13609;SDS011;6876;50.788;4.940;2023-09-19T16:52:39;6.78;;;1.45;;
13609;SDS011;6876;50.788;4.940;2023-09-19T16:55:27;3.55;;;1.30;;
13609;SDS011;6876;50.788;4.940;2023-09-19T16:58:14;3.78;;;1.30;;
13609;SDS011;6876;50.788;4.940;2023-09-19T17:01:02;2.60;;;1.10;;
13609;SDS011;6876;50.788;4.940;2023-09-19T17:03:51;5.00;;;1.35;;
13609;SDS011;6876;50.788;4.940;2023-09-19T17:06:38;4.97;;;1.40;;
13609;SDS011;6876;50.788;4.940;2023-09-19T17:09:26;2.72;;;1.33;;
13609;SDS011;6876;50.788;4.940;2023-09-19T17:12:13;3.53;;;1.33;;
13609;SDS011;6876;50.788;4.940;2023-09-19T17:15:01;4.25;;;1.50;;
13609;SDS011;6876;50.788;4.940;2023-09-19T17:17:49;2.83;;;1.15;;
13609;SDS011;6876;50.788;4.940;2023-09-19T17:20:41;5.47;;;1.50;;
13609;SDS011;6876;50.788;4.940;2023-09-19T17:23:29;3.40;;;1.30;;
13609;SDS011;6876;50.788;4.940;2023-09-19T17:26:18;5.70;;;1.70;;